Terminal Aerodrome Forecast
Issued by NWS

Home | Current Version | Previous Version | Text Only | Print | Product List | Glossary On
Versions: 1 2 3 4 5 6 7 8 9 10 11 12 13 14 15 16 17 18 19 20 21 22 23 24 25 26
000
FTUS45 KTWC 230520
TAFOLS
TAF
KOLS 230520Z 2306/2406 19008KT P6SM SCT250
     FM231100 VRB04KT P6SM FEW250
     FM231800 26013G22KT P6SM SKC
     FM240100 24008KT P6SM SKC=

USA.gov is the U.S. government's official web portal to all federal, state and local government web resources and services.